sensor_id;sensor_type;location;lat;lon;timestamp;P1;durP1;ratioP1;P2;durP2;ratioP2
4389;SDS011;2209;48.982;8.406;2023-04-24T00:02:06;0.90;;;0.90;;
4389;SDS011;2209;48.982;8.406;2023-04-24T00:04:31;0.80;;;0.80;;
4389;SDS011;2209;48.982;8.406;2023-04-24T00:06:53;0.93;;;0.90;;
4389;SDS011;2209;48.982;8.406;2023-04-24T00:09:17;0.93;;;0.70;;
4389;SDS011;2209;48.982;8.406;2023-04-24T00:11:39;0.87;;;0.87;;
4389;SDS011;2209;48.982;8.406;2023-04-24T00:14:03;0.80;;;0.80;;
4389;SDS011;2209;48.982;8.406;2023-04-24T00:16:25;1.00;;;0.70;;
4389;SDS011;2209;48.982;8.406;2023-04-24T00:18:48;2.30;;;0.80;;
4389;SDS011;2209;48.982;8.406;2023-04-24T00:21:10;1.03;;;0.90;;
4389;SDS011;2209;48.982;8.406;2023-04-24T00:23:32;1.80;;;0.77;;
4389;SDS011;2209;48.982;8.406;2023-04-24T00:25:55;0.80;;;0.80;;
4389;SDS011;2209;48.982;8.406;2023-04-24T00:28:17;1.00;;;0.77;;
4389;SDS011;2209;48.982;8.406;2023-04-24T00:30:40;1.20;;;1.17;;
4389;SDS011;2209;48.982;8.406;2023-04-24T00:33:03;0.73;;;0.70;;
4389;SDS011;2209;48.982;8.406;2023-04-24T00:35:25;0.63;;;0.63;;
4389;SDS011;2209;48.982;8.406;2023-04-24T00:37:47;1.43;;;1.10;;
4389;SDS011;2209;48.982;8.406;2023-04-24T00:40:10;0.90;;;0.90;;
4389;SDS011;2209;48.982;8.406;2023-04-24T00:42:32;1.30;;;1.20;;
4389;SDS011;2209;48.982;8.406;2023-04-24T00:44:55;1.43;;;1.07;;
4389;SDS011;2209;48.982;8.406;2023-04-24T00:47:19;0.60;;;0.60;;
4389;SDS011;2209;48.982;8.406;2023-04-24T00:49:42;0.70;;;0.70;;
4389;SDS011;2209;48.982;8.406;2023-04-24T00:52:04;1.10;;;1.00;;
4389;SDS011;2209;48.982;8.406;2023-04-24T00:54:29;1.00;;;0.90;;
4389;SDS011;2209;48.982;8.406;2023-04-24T00:56:51;1.10;;;1.00;;
4389;SDS011;2209;48.982;8.406;2023-04-24T00:59:13;1.87;;;1.00;;
4389;SDS011;2209;48.982;8.406;2023-04-24T01:01:38;2.13;;;0.90;;
4389;SDS011;2209;48.982;8.406;2023-04-24T01:04:03;4.37;;;1.03;;
4389;SDS011;2209;48.982;8.406;2023-04-24T01:06:28;0.80;;;0.80;;
4389;SDS011;2209;48.982;8.406;2023-04-24T01:08:51;0.90;;;0.90;;
4389;SDS011;2209;48.982;8.406;2023-04-24T01:11:13;1.40;;;0.80;;
4389;SDS011;2209;48.982;8.406;2023-04-24T01:13:36;1.10;;;0.80;;
4389;SDS011;2209;48.982;8.406;2023-04-24T01:15:58;2.70;;;1.10;;
4389;SDS011;2209;48.982;8.406;2023-04-24T01:18:21;3.87;;;1.20;;
4389;SDS011;2209;48.982;8.406;2023-04-24T01:20:44;1.97;;;1.13;;
4389;SDS011;2209;48.982;8.406;2023-04-24T01:23:08;0.87;;;0.60;;
4389;SDS011;2209;48.982;8.406;2023-04-24T01:25:31;1.30;;;0.80;;
4389;SDS011;2209;48.982;8.406;2023-04-24T01:27:53;0.80;;;0.70;;
4389;SDS011;2209;48.982;8.406;2023-04-24T01:30:16;1.77;;;0.90;;
4389;SDS011;2209;48.982;8.406;2023-04-24T01:32:38;1.10;;;0.77;;
4389;SDS011;2209;48.982;8.406;2023-04-24T01:35:01;0.70;;;0.70;;
4389;SDS011;2209;48.982;8.406;2023-04-24T01:37:23;0.70;;;0.70;;
4389;SDS011;2209;48.982;8.406;2023-04-24T01:39:48;1.00;;;0.80;;
4389;SDS011;2209;48.982;8.406;2023-04-24T01:42:10;1.43;;;0.93;;
4389;SDS011;2209;48.982;8.406;2023-04-24T01:44:34;0.90;;;0.70;;
4389;SDS011;2209;48.982;8.406;2023-04-24T01:46:57;0.93;;;0.83;;
4389;SDS011;2209;48.982;8.406;2023-04-24T01:49:19;3.23;;;0.70;;
4389;SDS011;2209;48.982;8.406;2023-04-24T01:51:42;2.20;;;1.00;;
4389;SDS011;2209;48.982;8.406;2023-04-24T01:54:04;2.47;;;0.90;;
4389;SDS011;2209;48.982;8.406;2023-04-24T01:56:28;0.90;;;0.80;;
4389;SDS011;2209;48.982;8.406;2023-04-24T01:58:51;1.30;;;0.80;;
4389;SDS011;2209;48.982;8.406;2023-04-24T02:01:17;0.80;;;0.80;;
4389;SDS011;2209;48.982;8.406;2023-04-24T02:03:40;2.40;;;1.07;;
4389;SDS011;2209;48.982;8.406;2023-04-24T02:06:02;0.97;;;0.73;;
4389;SDS011;2209;48.982;8.406;2023-04-24T02:08:25;1.57;;;0.97;;
4389;SDS011;2209;48.982;8.406;2023-04-24T02:10:47;1.27;;;0.80;;
4389;SDS011;2209;48.982;8.406;2023-04-24T02:13:10;2.30;;;1.60;;
4389;SDS011;2209;48.982;8.406;2023-04-24T02:15:32;5.60;;;0.80;;
4389;SDS011;2209;48.982;8.406;2023-04-24T02:17:56;2.50;;;0.80;;
4389;SDS011;2209;48.982;8.406;2023-04-24T02:20:18;0.70;;;0.70;;
4389;SDS011;2209;48.982;8.406;2023-04-24T02:22:40;0.73;;;0.73;;
4389;SDS011;2209;48.982;8.406;2023-04-24T02:25:02;0.93;;;0.87;;
4389;SDS011;2209;48.982;8.406;2023-04-24T02:27:25;2.77;;;0.90;;
4389;SDS011;2209;48.982;8.406;2023-04-24T02:29:48;1.30;;;1.10;;
4389;SDS011;2209;48.982;8.406;2023-04-24T02:32:11;1.17;;;1.07;;
4389;SDS011;2209;48.982;8.406;2023-04-24T02:34:33;1.90;;;0.93;;
4389;SDS011;2209;48.982;8.406;2023-04-24T02:36:55;1.00;;;1.00;;
4389;SDS011;2209;48.982;8.406;2023-04-24T02:39:17;2.40;;;0.80;;
4389;SDS011;2209;48.982;8.406;2023-04-24T02:41:39;3.73;;;1.20;;
4389;SDS011;2209;48.982;8.406;2023-04-24T02:44:01;3.63;;;0.73;;
4389;SDS011;2209;48.982;8.406;2023-04-24T02:46:25;0.80;;;0.80;;
4389;SDS011;2209;48.982;8.406;2023-04-24T02:48:47;0.90;;;0.90;;
4389;SDS011;2209;48.982;8.406;2023-04-24T02:51:09;1.70;;;0.80;;
4389;SDS011;2209;48.982;8.406;2023-04-24T02:53:31;1.47;;;1.37;;
4389;SDS011;2209;48.982;8.406;2023-04-24T02:55:53;1.00;;;0.90;;
4389;SDS011;2209;48.982;8.406;2023-04-24T02:58:16;1.40;;;1.13;;
4389;SDS011;2209;48.982;8.406;2023-04-24T03:00:40;0.70;;;0.70;;
4389;SDS011;2209;48.982;8.406;2023-04-24T03:03:03;1.67;;;0.90;;
4389;SDS011;2209;48.982;8.406;2023-04-24T03:05:27;2.63;;;0.90;;
4389;SDS011;2209;48.982;8.406;2023-04-24T03:07:51;0.70;;;0.70;;
4389;SDS011;2209;48.982;8.406;2023-04-24T03:10:13;1.47;;;1.03;;
4389;SDS011;2209;48.982;8.406;2023-04-24T03:12:36;0.83;;;0.77;;
4389;SDS011;2209;48.982;8.406;2023-04-24T03:14:58;0.93;;;0.90;;
4389;SDS011;2209;48.982;8.406;2023-04-24T03:17:20;0.80;;;0.80;;
4389;SDS011;2209;48.982;8.406;2023-04-24T03:19:43;0.90;;;0.90;;
4389;SDS011;2209;48.982;8.406;2023-04-24T03:22:05;0.70;;;0.70;;
4389;SDS011;2209;48.982;8.406;2023-04-24T03:24:29;0.80;;;0.73;;
4389;SDS011;2209;48.982;8.406;2023-04-24T03:26:51;1.23;;;1.10;;
4389;SDS011;2209;48.982;8.406;2023-04-24T03:29:14;1.10;;;1.10;;
4389;SDS011;2209;48.982;8.406;2023-04-24T03:31:36;0.90;;;0.90;;
4389;SDS011;2209;48.982;8.406;2023-04-24T03:33:58;0.90;;;0.90;;
4389;SDS011;2209;48.982;8.406;2023-04-24T03:36:21;0.80;;;0.80;;
4389;SDS011;2209;48.982;8.406;2023-04-24T03:38:43;1.00;;;0.70;;
4389;SDS011;2209;48.982;8.406;2023-04-24T03:41:06;1.10;;;1.00;;
4389;SDS011;2209;48.982;8.406;2023-04-24T03:43:28;2.20;;;0.90;;
4389;SDS011;2209;48.982;8.406;2023-04-24T03:45:50;1.80;;;0.87;;
4389;SDS011;2209;48.982;8.406;2023-04-24T03:48:12;0.70;;;0.70;;
4389;SDS011;2209;48.982;8.406;2023-04-24T03:50:34;1.57;;;1.03;;
4389;SDS011;2209;48.982;8.406;2023-04-24T03:52:57;1.10;;;1.00;;
4389;SDS011;2209;48.982;8.406;2023-04-24T03:55:19;1.30;;;1.20;;
4389;SDS011;2209;48.982;8.406;2023-04-24T03:57:42;1.17;;;1.07;;
4389;SDS011;2209;48.982;8.406;2023-04-24T04:00:04;1.23;;;1.13;;
4389;SDS011;2209;48.982;8.406;2023-04-24T04:02:29;1.40;;;1.30;;
4389;SDS011;2209;48.982;8.406;2023-04-24T04:04:51;0.97;;;0.97;;
4389;SDS011;2209;48.982;8.406;2023-04-24T04:07:15;1.00;;;0.90;;
4389;SDS011;2209;48.982;8.406;2023-04-24T04:09:39;1.40;;;1.30;;
4389;SDS011;2209;48.982;8.406;2023-04-24T04:12:01;3.13;;;1.20;;
4389;SDS011;2209;48.982;8.406;2023-04-24T04:14:23;1.00;;;0.90;;
4389;SDS011;2209;48.982;8.406;2023-04-24T04:16:45;3.77;;;1.00;;
4389;SDS011;2209;48.982;8.406;2023-04-24T04:19:07;1.13;;;1.03;;
4389;SDS011;2209;48.982;8.406;2023-04-24T04:21:29;0.90;;;0.90;;
4389;SDS011;2209;48.982;8.406;2023-04-24T04:23:52;1.10;;;1.00;;
4389;SDS011;2209;48.982;8.406;2023-04-24T04:26:15;1.40;;;0.90;;
4389;SDS011;2209;48.982;8.406;2023-04-24T04:28:41;1.23;;;1.17;;
4389;SDS011;2209;48.982;8.406;2023-04-24T04:31:05;1.27;;;1.17;;
4389;SDS011;2209;48.982;8.406;2023-04-24T04:33:28;2.30;;;0.90;;
4389;SDS011;2209;48.982;8.406;2023-04-24T04:35:50;1.13;;;1.07;;
4389;SDS011;2209;48.982;8.406;2023-04-24T04:38:12;1.13;;;1.03;;
4389;SDS011;2209;48.982;8.406;2023-04-24T04:40:38;3.20;;;1.40;;
4389;SDS011;2209;48.982;8.406;2023-04-24T04:43:02;1.80;;;1.10;;
4389;SDS011;2209;48.982;8.406;2023-04-24T04:45:24;1.30;;;1.20;;
4389;SDS011;2209;48.982;8.406;2023-04-24T04:47:48;1.27;;;1.17;;
4389;SDS011;2209;48.982;8.406;2023-04-24T04:50:13;1.47;;;1.33;;
4389;SDS011;2209;48.982;8.406;2023-04-24T04:52:36;1.80;;;1.27;;
4389;SDS011;2209;48.982;8.406;2023-04-24T04:54:59;1.13;;;1.03;;
4389;SDS011;2209;48.982;8.406;2023-04-24T04:57:21;1.50;;;1.17;;
4389;SDS011;2209;48.982;8.406;2023-04-24T04:59:44;2.93;;;1.13;;
4389;SDS011;2209;48.982;8.406;2023-04-24T05:02:07;2.80;;;1.60;;
4389;SDS011;2209;48.982;8.406;2023-04-24T05:04:29;1.20;;;1.10;;
4389;SDS011;2209;48.982;8.406;2023-04-24T05:06:51;1.23;;;1.13;;
4389;SDS011;2209;48.982;8.406;2023-04-24T05:09:13;1.53;;;1.40;;
4389;SDS011;2209;48.982;8.406;2023-04-24T05:11:36;1.53;;;1.43;;
4389;SDS011;2209;48.982;8.406;2023-04-24T05:13:58;1.50;;;1.40;;
4389;SDS011;2209;48.982;8.406;2023-04-24T05:16:22;2.17;;;1.97;;
4389;SDS011;2209;48.982;8.406;2023-04-24T05:18:44;1.30;;;1.20;;
4389;SDS011;2209;48.982;8.406;2023-04-24T05:21:06;1.80;;;1.30;;
4389;SDS011;2209;48.982;8.406;2023-04-24T05:23:28;1.07;;;1.03;;
4389;SDS011;2209;48.982;8.406;2023-04-24T05:25:50;1.30;;;1.20;;
4389;SDS011;2209;48.982;8.406;2023-04-24T05:28:13;1.63;;;1.53;;
4389;SDS011;2209;48.982;8.406;2023-04-24T05:30:35;1.67;;;1.43;;
4389;SDS011;2209;48.982;8.406;2023-04-24T05:32:59;3.97;;;1.47;;
4389;SDS011;2209;48.982;8.406;2023-04-24T05:35:21;1.30;;;1.20;;
4389;SDS011;2209;48.982;8.406;2023-04-24T05:37:43;1.60;;;1.50;;
4389;SDS011;2209;48.982;8.406;2023-04-24T05:40:05;2.17;;;1.20;;
4389;SDS011;2209;48.982;8.406;2023-04-24T05:42:29;1.67;;;1.20;;
4389;SDS011;2209;48.982;8.406;2023-04-24T05:44:51;3.10;;;1.33;;
4389;SDS011;2209;48.982;8.406;2023-04-24T05:47:14;1.50;;;1.40;;
4389;SDS011;2209;48.982;8.406;2023-04-24T05:49:38;1.20;;;1.20;;
4389;SDS011;2209;48.982;8.406;2023-04-24T05:52:00;2.10;;;1.33;;
4389;SDS011;2209;48.982;8.406;2023-04-24T05:54:24;1.30;;;1.20;;
4389;SDS011;2209;48.982;8.406;2023-04-24T05:56:46;2.00;;;1.10;;
4389;SDS011;2209;48.982;8.406;2023-04-24T05:59:08;1.57;;;1.47;;
4389;SDS011;2209;48.982;8.406;2023-04-24T06:01:30;1.87;;;1.40;;
4389;SDS011;2209;48.982;8.406;2023-04-24T06:03:52;1.27;;;1.17;;
4389;SDS011;2209;48.982;8.406;2023-04-24T06:06:16;1.30;;;1.20;;
4389;SDS011;2209;48.982;8.406;2023-04-24T06:08:39;6.10;;;1.40;;
4389;SDS011;2209;48.982;8.406;2023-04-24T06:11:02;3.20;;;1.60;;
4389;SDS011;2209;48.982;8.406;2023-04-24T06:13:24;2.20;;;1.50;;
4389;SDS011;2209;48.982;8.406;2023-04-24T06:15:46;3.23;;;1.47;;
4389;SDS011;2209;48.982;8.406;2023-04-24T06:18:09;1.93;;;1.43;;
4389;SDS011;2209;48.982;8.406;2023-04-24T06:20:31;5.07;;;1.50;;
4389;SDS011;2209;48.982;8.406;2023-04-24T06:22:54;1.50;;;1.40;;
4389;SDS011;2209;48.982;8.406;2023-04-24T06:25:16;1.93;;;1.40;;
4389;SDS011;2209;48.982;8.406;2023-04-24T06:27:39;3.47;;;1.70;;
4389;SDS011;2209;48.982;8.406;2023-04-24T06:30:01;1.40;;;1.30;;
4389;SDS011;2209;48.982;8.406;2023-04-24T06:32:24;3.57;;;1.20;;
4389;SDS011;2209;48.982;8.406;2023-04-24T06:34:47;1.83;;;1.73;;
4389;SDS011;2209;48.982;8.406;2023-04-24T06:37:09;3.47;;;1.80;;
4389;SDS011;2209;48.982;8.406;2023-04-24T06:39:33;2.03;;;1.87;;
4389;SDS011;2209;48.982;8.406;2023-04-24T06:41:55;2.23;;;2.03;;
4389;SDS011;2209;48.982;8.406;2023-04-24T06:44:17;3.17;;;2.27;;
4389;SDS011;2209;48.982;8.406;2023-04-24T06:46:39;2.23;;;2.13;;
4389;SDS011;2209;48.982;8.406;2023-04-24T06:49:01;2.33;;;2.13;;
4389;SDS011;2209;48.982;8.406;2023-04-24T06:51:23;1.43;;;1.30;;
4389;SDS011;2209;48.982;8.406;2023-04-24T06:53:46;2.30;;;1.67;;
4389;SDS011;2209;48.982;8.406;2023-04-24T06:56:09;2.00;;;1.50;;
4389;SDS011;2209;48.982;8.406;2023-04-24T06:58:31;3.80;;;2.07;;
4389;SDS011;2209;48.982;8.406;2023-04-24T07:00:53;4.70;;;2.23;;
4389;SDS011;2209;48.982;8.406;2023-04-24T07:03:15;1.40;;;1.40;;
4389;SDS011;2209;48.982;8.406;2023-04-24T07:05:37;2.00;;;1.57;;
4389;SDS011;2209;48.982;8.406;2023-04-24T07:08:00;3.63;;;2.20;;
4389;SDS011;2209;48.982;8.406;2023-04-24T07:10:22;1.70;;;1.60;;
4389;SDS011;2209;48.982;8.406;2023-04-24T07:12:46;2.47;;;2.27;;
4389;SDS011;2209;48.982;8.406;2023-04-24T07:15:08;2.20;;;2.10;;
4389;SDS011;2209;48.982;8.406;2023-04-24T07:17:31;1.90;;;1.40;;
4389;SDS011;2209;48.982;8.406;2023-04-24T07:19:54;1.83;;;1.63;;
4389;SDS011;2209;48.982;8.406;2023-04-24T07:22:16;2.40;;;2.00;;
4389;SDS011;2209;48.982;8.406;2023-04-24T07:24:38;1.57;;;1.47;;
4389;SDS011;2209;48.982;8.406;2023-04-24T07:27:00;1.30;;;1.20;;
4389;SDS011;2209;48.982;8.406;2023-04-24T07:29:24;2.50;;;2.17;;
4389;SDS011;2209;48.982;8.406;2023-04-24T07:31:46;1.40;;;1.30;;
4389;SDS011;2209;48.982;8.406;2023-04-24T07:34:09;2.20;;;1.30;;
4389;SDS011;2209;48.982;8.406;2023-04-24T07:36:31;2.90;;;2.40;;
4389;SDS011;2209;48.982;8.406;2023-04-24T07:38:53;1.30;;;1.20;;
4389;SDS011;2209;48.982;8.406;2023-04-24T07:41:16;2.00;;;1.80;;
4389;SDS011;2209;48.982;8.406;2023-04-24T07:43:38;10.20;;;1.70;;
4389;SDS011;2209;48.982;8.406;2023-04-24T07:46:02;1.37;;;1.27;;
4389;SDS011;2209;48.982;8.406;2023-04-24T07:48:24;1.60;;;1.50;;
4389;SDS011;2209;48.982;8.406;2023-04-24T07:50:46;1.57;;;1.47;;
4389;SDS011;2209;48.982;8.406;2023-04-24T07:53:08;1.60;;;1.50;;
4389;SDS011;2209;48.982;8.406;2023-04-24T07:55:30;2.30;;;1.57;;
4389;SDS011;2209;48.982;8.406;2023-04-24T07:57:53;1.40;;;1.30;;
4389;SDS011;2209;48.982;8.406;2023-04-24T08:00:15;2.10;;;1.50;;
4389;SDS011;2209;48.982;8.406;2023-04-24T08:02:39;1.23;;;1.17;;
4389;SDS011;2209;48.982;8.406;2023-04-24T08:05:01;1.60;;;1.50;;
4389;SDS011;2209;48.982;8.406;2023-04-24T08:07:23;2.80;;;1.40;;
4389;SDS011;2209;48.982;8.406;2023-04-24T08:09:46;1.50;;;1.40;;
4389;SDS011;2209;48.982;8.406;2023-04-24T08:12:08;1.70;;;1.60;;
4389;SDS011;2209;48.982;8.406;2023-04-24T08:14:30;1.33;;;1.23;;
4389;SDS011;2209;48.982;8.406;2023-04-24T08:16:53;1.40;;;1.30;;
4389;SDS011;2209;48.982;8.406;2023-04-24T08:19:17;1.67;;;1.57;;
4389;SDS011;2209;48.982;8.406;2023-04-24T08:21:39;1.53;;;1.30;;
4389;SDS011;2209;48.982;8.406;2023-04-24T08:24:01;1.80;;;1.57;;
4389;SDS011;2209;48.982;8.406;2023-04-24T08:26:25;2.13;;;1.47;;
4389;SDS011;2209;48.982;8.406;2023-04-24T08:28:47;1.93;;;1.57;;
4389;SDS011;2209;48.982;8.406;2023-04-24T08:31:09;1.40;;;1.30;;
4389;SDS011;2209;48.982;8.406;2023-04-24T08:33:31;1.43;;;1.33;;
4389;SDS011;2209;48.982;8.406;2023-04-24T08:35:56;1.30;;;1.20;;
4389;SDS011;2209;48.982;8.406;2023-04-24T08:38:18;1.80;;;1.70;;
4389;SDS011;2209;48.982;8.406;2023-04-24T08:40:40;4.03;;;1.30;;
4389;SDS011;2209;48.982;8.406;2023-04-24T08:43:02;1.53;;;1.43;;
4389;SDS011;2209;48.982;8.406;2023-04-24T08:45:25;1.67;;;1.40;;
4389;SDS011;2209;48.982;8.406;2023-04-24T08:47:47;3.63;;;1.60;;
4389;SDS011;2209;48.982;8.406;2023-04-24T08:50:10;1.53;;;1.43;;
4389;SDS011;2209;48.982;8.406;2023-04-24T08:52:34;1.20;;;1.10;;
4389;SDS011;2209;48.982;8.406;2023-04-24T08:54:56;1.57;;;1.30;;
4389;SDS011;2209;48.982;8.406;2023-04-24T08:57:18;1.57;;;1.47;;
4389;SDS011;2209;48.982;8.406;2023-04-24T08:59:41;5.43;;;1.33;;
4389;SDS011;2209;48.982;8.406;2023-04-24T09:02:04;1.47;;;1.37;;
4389;SDS011;2209;48.982;8.406;2023-04-24T09:04:27;1.80;;;1.70;;
4389;SDS011;2209;48.982;8.406;2023-04-24T09:06:50;1.73;;;1.63;;
4389;SDS011;2209;48.982;8.406;2023-04-24T09:09:14;4.27;;;1.30;;
4389;SDS011;2209;48.982;8.406;2023-04-24T09:11:39;1.60;;;1.37;;
4389;SDS011;2209;48.982;8.406;2023-04-24T09:14:02;2.40;;;1.50;;
4389;SDS011;2209;48.982;8.406;2023-04-24T09:16:25;2.20;;;1.50;;
4389;SDS011;2209;48.982;8.406;2023-04-24T09:18:47;1.50;;;1.40;;
4389;SDS011;2209;48.982;8.406;2023-04-24T09:21:09;2.03;;;1.83;;
4389;SDS011;2209;48.982;8.406;2023-04-24T09:23:32;1.60;;;1.50;;
4389;SDS011;2209;48.982;8.406;2023-04-24T09:25:55;2.10;;;1.83;;
4389;SDS011;2209;48.982;8.406;2023-04-24T09:28:18;2.17;;;1.43;;
4389;SDS011;2209;48.982;8.406;2023-04-24T09:30:40;1.47;;;1.37;;
4389;SDS011;2209;48.982;8.406;2023-04-24T09:33:12;1.93;;;1.70;;
4389;SDS011;2209;48.982;8.406;2023-04-24T09:35:34;2.27;;;2.00;;
4389;SDS011;2209;48.982;8.406;2023-04-24T09:37:57;2.53;;;2.33;;
4389;SDS011;2209;48.982;8.406;2023-04-24T09:40:19;2.07;;;1.80;;
4389;SDS011;2209;48.982;8.406;2023-04-24T09:42:45;2.10;;;2.00;;
4389;SDS011;2209;48.982;8.406;2023-04-24T09:45:08;2.67;;;2.47;;
4389;SDS011;2209;48.982;8.406;2023-04-24T09:47:35;3.90;;;2.40;;
4389;SDS011;2209;48.982;8.406;2023-04-24T09:49:57;2.40;;;2.00;;
4389;SDS011;2209;48.982;8.406;2023-04-24T09:52:20;2.37;;;1.77;;
4389;SDS011;2209;48.982;8.406;2023-04-24T09:54:42;2.33;;;2.13;;
4389;SDS011;2209;48.982;8.406;2023-04-24T09:57:14;2.07;;;1.97;;
4389;SDS011;2209;48.982;8.406;2023-04-24T09:59:39;3.27;;;2.23;;
4389;SDS011;2209;48.982;8.406;2023-04-24T10:02:04;1.70;;;1.60;;
4389;SDS011;2209;48.982;8.406;2023-04-24T10:04:38;2.60;;;2.40;;
4389;SDS011;2209;48.982;8.406;2023-04-24T10:07:02;1.70;;;1.60;;
4389;SDS011;2209;48.982;8.406;2023-04-24T10:09:27;5.83;;;2.00;;
4389;SDS011;2209;48.982;8.406;2023-04-24T10:11:49;2.23;;;2.03;;
4389;SDS011;2209;48.982;8.406;2023-04-24T10:14:14;2.70;;;2.50;;
4389;SDS011;2209;48.982;8.406;2023-04-24T10:16:40;1.97;;;1.87;;
4389;SDS011;2209;48.982;8.406;2023-04-24T10:19:03;2.30;;;1.83;;
4389;SDS011;2209;48.982;8.406;2023-04-24T10:21:26;2.47;;;2.27;;
4389;SDS011;2209;48.982;8.406;2023-04-24T10:23:48;1.60;;;1.50;;
4389;SDS011;2209;48.982;8.406;2023-04-24T10:26:12;1.90;;;1.80;;
4389;SDS011;2209;48.982;8.406;2023-04-24T10:28:37;2.00;;;1.87;;
4389;SDS011;2209;48.982;8.406;2023-04-24T10:31:02;3.97;;;2.20;;
4389;SDS011;2209;48.982;8.406;2023-04-24T10:33:26;6.40;;;1.90;;
4389;SDS011;2209;48.982;8.406;2023-04-24T10:35:49;1.83;;;1.70;;
4389;SDS011;2209;48.982;8.406;2023-04-24T10:38:13;2.20;;;2.10;;
4389;SDS011;2209;48.982;8.406;2023-04-24T10:40:38;2.10;;;1.90;;
4389;SDS011;2209;48.982;8.406;2023-04-24T10:43:02;2.13;;;2.03;;
4389;SDS011;2209;48.982;8.406;2023-04-24T10:45:26;1.83;;;1.73;;
4389;SDS011;2209;48.982;8.406;2023-04-24T10:47:52;4.23;;;2.20;;
4389;SDS011;2209;48.982;8.406;2023-04-24T10:50:22;2.23;;;2.07;;
4389;SDS011;2209;48.982;8.406;2023-04-24T10:52:45;3.13;;;1.90;;
4389;SDS011;2209;48.982;8.406;2023-04-24T10:55:08;2.70;;;1.70;;
4389;SDS011;2209;48.982;8.406;2023-04-24T10:57:30;2.83;;;2.00;;
4389;SDS011;2209;48.982;8.406;2023-04-24T11:02:35;2.10;;;1.90;;
4389;SDS011;2209;48.982;8.406;2023-04-24T11:05:00;4.67;;;1.70;;
4389;SDS011;2209;48.982;8.406;2023-04-24T11:07:26;2.70;;;1.60;;
4389;SDS011;2209;48.982;8.406;2023-04-24T11:09:48;1.77;;;1.67;;
4389;SDS011;2209;48.982;8.406;2023-04-24T11:12:21;2.03;;;1.90;;
4389;SDS011;2209;48.982;8.406;2023-04-24T11:15:00;2.43;;;2.10;;
4389;SDS011;2209;48.982;8.406;2023-04-24T11:17:29;3.50;;;2.47;;
4389;SDS011;2209;48.982;8.406;2023-04-24T11:19:52;2.30;;;1.77;;
4389;SDS011;2209;48.982;8.406;2023-04-24T11:22:22;4.07;;;2.33;;
4389;SDS011;2209;48.982;8.406;2023-04-24T11:24:50;2.27;;;2.07;;
4389;SDS011;2209;48.982;8.406;2023-04-24T11:27:15;5.00;;;2.70;;
4389;SDS011;2209;48.982;8.406;2023-04-24T11:29:44;3.37;;;3.17;;
4389;SDS011;2209;48.982;8.406;2023-04-24T11:32:14;4.40;;;3.10;;
4389;SDS011;2209;48.982;8.406;2023-04-24T11:34:41;3.33;;;3.13;;
4389;SDS011;2209;48.982;8.406;2023-04-24T11:37:06;3.63;;;2.87;;
4389;SDS011;2209;48.982;8.406;2023-04-24T11:39:28;3.57;;;2.27;;
4389;SDS011;2209;48.982;8.406;2023-04-24T11:42:03;2.80;;;2.60;;
4389;SDS011;2209;48.982;8.406;2023-04-24T11:44:27;3.67;;;3.10;;
4389;SDS011;2209;48.982;8.406;2023-04-24T11:46:52;4.03;;;2.73;;
4389;SDS011;2209;48.982;8.406;2023-04-24T11:49:17;3.33;;;3.03;;
4389;SDS011;2209;48.982;8.406;2023-04-24T11:51:39;3.43;;;2.37;;
4389;SDS011;2209;48.982;8.406;2023-04-24T11:54:01;5.70;;;2.90;;
4389;SDS011;2209;48.982;8.406;2023-04-24T11:56:23;4.93;;;3.07;;
4389;SDS011;2209;48.982;8.406;2023-04-24T11:58:47;3.57;;;3.27;;
4389;SDS011;2209;48.982;8.406;2023-04-24T12:01:09;3.93;;;3.30;;
4389;SDS011;2209;48.982;8.406;2023-04-24T12:03:31;9.60;;;3.27;;
4389;SDS011;2209;48.982;8.406;2023-04-24T12:06:03;3.40;;;3.10;;
4389;SDS011;2209;48.982;8.406;2023-04-24T12:08:27;4.70;;;3.50;;
4389;SDS011;2209;48.982;8.406;2023-04-24T12:10:50;4.17;;;3.70;;
4389;SDS011;2209;48.982;8.406;2023-04-24T12:13:13;3.00;;;2.80;;
4389;SDS011;2209;48.982;8.406;2023-04-24T12:15:39;3.30;;;2.80;;
4389;SDS011;2209;48.982;8.406;2023-04-24T12:18:03;3.87;;;2.63;;
4389;SDS011;2209;48.982;8.406;2023-04-24T12:20:26;4.20;;;2.50;;
4389;SDS011;2209;48.982;8.406;2023-04-24T12:22:50;2.83;;;2.47;;
4389;SDS011;2209;48.982;8.406;2023-04-24T12:25:15;4.47;;;3.40;;
4389;SDS011;2209;48.982;8.406;2023-04-24T12:27:38;3.63;;;3.30;;
4389;SDS011;2209;48.982;8.406;2023-04-24T12:30:00;3.30;;;3.00;;
4389;SDS011;2209;48.982;8.406;2023-04-24T12:32:25;6.50;;;3.70;;
4389;SDS011;2209;48.982;8.406;2023-04-24T12:34:48;2.53;;;2.33;;
4389;SDS011;2209;48.982;8.406;2023-04-24T12:37:11;3.10;;;2.90;;
4389;SDS011;2209;48.982;8.406;2023-04-24T12:39:33;4.10;;;2.50;;
4389;SDS011;2209;48.982;8.406;2023-04-24T12:41:55;2.97;;;2.73;;
4389;SDS011;2209;48.982;8.406;2023-04-24T12:44:18;2.70;;;2.50;;
4389;SDS011;2209;48.982;8.406;2023-04-24T12:46:40;3.03;;;2.70;;
4389;SDS011;2209;48.982;8.406;2023-04-24T12:49:03;3.13;;;2.83;;
4389;SDS011;2209;48.982;8.406;2023-04-24T12:51:25;3.53;;;2.57;;
4389;SDS011;2209;48.982;8.406;2023-04-24T12:53:48;3.40;;;2.80;;
4389;SDS011;2209;48.982;8.406;2023-04-24T12:56:10;3.07;;;2.87;;
4389;SDS011;2209;48.982;8.406;2023-04-24T12:58:32;5.73;;;3.43;;
4389;SDS011;2209;48.982;8.406;2023-04-24T13:00:54;3.13;;;2.87;;
4389;SDS011;2209;48.982;8.406;2023-04-24T13:03:16;2.60;;;2.40;;
4389;SDS011;2209;48.982;8.406;2023-04-24T13:05:40;3.57;;;2.20;;
4389;SDS011;2209;48.982;8.406;2023-04-24T13:08:03;4.50;;;2.97;;
4389;SDS011;2209;48.982;8.406;2023-04-24T13:10:25;3.20;;;2.90;;
4389;SDS011;2209;48.982;8.406;2023-04-24T13:12:47;3.20;;;2.97;;
4389;SDS011;2209;48.982;8.406;2023-04-24T13:15:09;2.63;;;2.27;;
4389;SDS011;2209;48.982;8.406;2023-04-24T13:17:32;4.87;;;2.47;;
4389;SDS011;2209;48.982;8.406;2023-04-24T13:19:54;2.30;;;2.20;;
4389;SDS011;2209;48.982;8.406;2023-04-24T13:22:18;2.77;;;2.57;;
4389;SDS011;2209;48.982;8.406;2023-04-24T13:24:40;3.03;;;2.20;;
4389;SDS011;2209;48.982;8.406;2023-04-24T13:27:02;3.00;;;2.60;;
4389;SDS011;2209;48.982;8.406;2023-04-24T13:29:24;3.57;;;2.60;;
4389;SDS011;2209;48.982;8.406;2023-04-24T13:31:46;6.40;;;3.23;;
4389;SDS011;2209;48.982;8.406;2023-04-24T13:34:09;3.80;;;2.40;;
4389;SDS011;2209;48.982;8.406;2023-04-24T13:36:31;2.10;;;1.90;;
4389;SDS011;2209;48.982;8.406;2023-04-24T13:38:55;2.83;;;2.10;;
4389;SDS011;2209;48.982;8.406;2023-04-24T13:41:17;3.93;;;3.43;;
4389;SDS011;2209;48.982;8.406;2023-04-24T13:43:39;2.93;;;2.70;;
4389;SDS011;2209;48.982;8.406;2023-04-24T13:46:02;2.67;;;2.43;;
4389;SDS011;2209;48.982;8.406;2023-04-24T13:48:24;4.43;;;2.60;;
4389;SDS011;2209;48.982;8.406;2023-04-24T13:50:46;2.30;;;2.10;;
4389;SDS011;2209;48.982;8.406;2023-04-24T13:53:09;2.37;;;2.10;;
4389;SDS011;2209;48.982;8.406;2023-04-24T13:55:33;2.00;;;1.67;;
4389;SDS011;2209;48.982;8.406;2023-04-24T13:57:55;2.33;;;1.77;;
4389;SDS011;2209;48.982;8.406;2023-04-24T14:00:17;2.70;;;1.77;;
4389;SDS011;2209;48.982;8.406;2023-04-24T14:02:41;1.97;;;1.80;;
4389;SDS011;2209;48.982;8.406;2023-04-24T14:05:03;2.03;;;1.73;;
4389;SDS011;2209;48.982;8.406;2023-04-24T14:07:26;2.70;;;2.10;;
4389;SDS011;2209;48.982;8.406;2023-04-24T14:09:49;2.13;;;1.93;;
4389;SDS011;2209;48.982;8.406;2023-04-24T14:12:13;2.30;;;2.10;;
4389;SDS011;2209;48.982;8.406;2023-04-24T14:14:36;1.93;;;1.83;;
4389;SDS011;2209;48.982;8.406;2023-04-24T14:16:58;2.47;;;1.80;;
4389;SDS011;2209;48.982;8.406;2023-04-24T14:19:21;2.20;;;2.00;;
4389;SDS011;2209;48.982;8.406;2023-04-24T14:21:43;2.13;;;2.03;;
4389;SDS011;2209;48.982;8.406;2023-04-24T14:24:05;3.90;;;2.43;;
4389;SDS011;2209;48.982;8.406;2023-04-24T14:26:27;3.23;;;2.10;;
4389;SDS011;2209;48.982;8.406;2023-04-24T14:28:50;3.00;;;2.67;;
4389;SDS011;2209;48.982;8.406;2023-04-24T14:31:13;2.33;;;2.13;;
4389;SDS011;2209;48.982;8.406;2023-04-24T14:33:35;2.20;;;2.00;;
4389;SDS011;2209;48.982;8.406;2023-04-24T14:35:57;2.33;;;2.23;;
4389;SDS011;2209;48.982;8.406;2023-04-24T14:38:19;3.63;;;2.10;;
4389;SDS011;2209;48.982;8.406;2023-04-24T14:40:42;1.50;;;1.37;;
4389;SDS011;2209;48.982;8.406;2023-04-24T14:43:04;2.50;;;1.67;;
4389;SDS011;2209;48.982;8.406;2023-04-24T14:45:27;1.60;;;1.50;;
4389;SDS011;2209;48.982;8.406;2023-04-24T14:47:49;1.07;;;1.07;;
4389;SDS011;2209;48.982;8.406;2023-04-24T14:50:11;2.10;;;1.63;;
4389;SDS011;2209;48.982;8.406;2023-04-24T14:52:33;1.10;;;1.10;;